Time;durP1;ratioP1;P1;durP2;ratioP2;P2;SDS_P1;SDS_P2;PMS_P1;PMS_P2;Temp;Humidity;BMP_temperature;BMP_pressure;BME280_temperature;BME280_humidity;BME280_pressure;Samples;Min_cycle;Max_cycle;Signal;HPM_P1;HPM_P2
2022/07/04 00:02:03;;;;;;;24.20;15.20;;;;;;;;;;5038614;28;20075;-78
2022/07/04 00:04:29;;;;;;;24.42;14.77;;;;;;;;;;5040446;28;20079;-78
2022/07/04 00:06:54;;;;;;;21.63;15.57;;;;;;;;;;5040247;28;20029;-77
2022/07/04 00:09:20;;;;;;;27.05;16.83;;;;;;;;;;5022569;28;20072;-78
2022/07/04 00:11:48;;;;;;;27.98;18.27;;;;;;;;;;5036749;28;20088;-78
2022/07/04 00:14:13;;;;;;;25.73;18.33;;;;;;;;;;5020349;28;20969;-78
2022/07/04 00:16:39;;;;;;;23.85;18.33;;;;;;;;;;5005673;28;20118;-76
2022/07/04 00:19:04;;;;;;;23.15;17.35;;;;;;;;;;4990194;28;20083;-77
2022/07/04 00:21:30;;;;;;;19.95;16.67;;;;;;;;;;5022522;28;20104;-77
2022/07/04 00:23:55;;;;;;;25.35;19.80;;;;;;;;;;5022696;28;20053;-77
2022/07/04 00:26:20;;;;;;;24.42;19.35;;;;;;;;;;5008785;28;20118;-78
2022/07/04 00:28:46;;;;;;;28.17;18.52;;;;;;;;;;5016790;28;20029;-79
2022/07/04 00:31:11;;;;;;;31.83;17.45;;;;;;;;;;5032495;28;20053;-77
2022/07/04 00:33:36;;;;;;;21.60;15.40;;;;;;;;;;5013286;28;20108;-77
2022/07/04 00:36:02;;;;;;;24.75;15.02;;;;;;;;;;5039512;28;20128;-78
2022/07/04 00:38:28;;;;;;;18.40;13.73;;;;;;;;;;5022380;28;20094;-78
2022/07/04 00:40:53;;;;;;;19.20;14.77;;;;;;;;;;5037608;28;20434;-78
2022/07/04 00:43:26;;;;;;;22.35;13.52;;;;;;;;;;5036243;28;20037;-76
2022/07/04 00:45:51;;;;;;;22.20;15.75;;;;;;;;;;5025306;28;20116;-78
2022/07/04 00:48:18;;;;;;;17.55;12.43;;;;;;;;;;5020648;28;20470;-78
2022/07/04 00:50:44;;;;;;;16.40;13.35;;;;;;;;;;4997544;28;20040;-77
2022/07/04 00:53:10;;;;;;;18.55;13.35;;;;;;;;;;4990991;28;20026;-77
2022/07/04 00:55:36;;;;;;;18.83;13.18;;;;;;;;;;5026993;28;20040;-77
2022/07/04 00:58:01;;;;;;;19.63;14.00;;;;;;;;;;5039754;28;20049;-77
2022/07/04 01:00:28;;;;;;;21.73;13.98;;;;;;;;;;5020949;28;20141;-78
2022/07/04 01:02:53;;;;;;;17.67;13.95;;;;;;;;;;5023089;28;20040;-78
2022/07/04 01:05:19;;;;;;;24.75;15.38;;;;;;;;;;5023299;28;20033;-78
2022/07/04 01:07:45;;;;;;;23.13;14.23;;;;;;;;;;5022572;28;20037;-79
2022/07/04 01:10:10;;;;;;;15.70;13.27;;;;;;;;;;5005865;28;20123;-78
2022/07/04 01:12:36;;;;;;;19.45;15.20;;;;;;;;;;5025730;28;20025;-77
2022/07/04 01:15:02;;;;;;;21.00;14.30;;;;;;;;;;4991476;28;20120;-78
2022/07/04 01:17:27;;;;;;;21.23;13.80;;;;;;;;;;4997690;28;20092;-77
2022/07/04 01:19:52;;;;;;;18.33;14.65;;;;;;;;;;5003054;28;20072;-77
2022/07/04 01:22:19;;;;;;;19.35;14.77;;;;;;;;;;5036788;28;20047;-77
2022/07/04 01:24:44;;;;;;;16.17;12.93;;;;;;;;;;5043952;28;20090;-78
2022/07/04 01:27:10;;;;;;;21.70;14.77;;;;;;;;;;5000340;28;20033;-78
2022/07/04 01:29:35;;;;;;;19.73;14.38;;;;;;;;;;5007387;28;20029;-78
2022/07/04 01:32:05;;;;;;;24.10;15.77;;;;;;;;;;5041944;28;20116;-77
2022/07/04 01:34:30;;;;;;;21.63;15.20;;;;;;;;;;5050316;28;20025;-78
2022/07/04 01:36:56;;;;;;;24.70;15.32;;;;;;;;;;5025144;28;20660;-78
2022/07/04 01:39:21;;;;;;;22.02;15.93;;;;;;;;;;5024620;28;20121;-78
2022/07/04 01:41:46;;;;;;;22.15;14.63;;;;;;;;;;5026614;28;20073;-78
2022/07/04 01:44:14;;;;;;;22.67;16.13;;;;;;;;;;5009051;28;20519;-78
2022/07/04 01:46:40;;;;;;;21.92;14.80;;;;;;;;;;5009345;28;20064;-78
2022/07/04 01:49:05;;;;;;;15.90;13.50;;;;;;;;;;5042418;28;20116;-78
2022/07/04 01:51:30;;;;;;;21.48;14.27;;;;;;;;;;5042053;28;20037;-77
2022/07/04 01:53:56;;;;;;;19.35;14.00;;;;;;;;;;4993329;28;20056;-77
2022/07/04 01:56:21;;;;;;;22.92;14.15;;;;;;;;;;5019795;28;20025;-77
2022/07/04 01:58:46;;;;;;;22.90;15.02;;;;;;;;;;4992774;28;20129;-77
2022/07/04 02:01:30;;;;;;;21.55;14.57;;;;;;;;;;5007857;28;20037;-77
2022/07/04 02:03:58;;;;;;;23.77;16.08;;;;;;;;;;5025254;28;20029;-78
2022/07/04 02:06:26;;;;;;;18.33;14.07;;;;;;;;;;5008940;28;20021;-77
2022/07/04 02:14:20;;;;;;;21.17;15.45;;;;;;;;;;5010515;28;20041;-77
2022/07/04 02:16:45;;;;;;;19.15;13.25;;;;;;;;;;5038954;28;20021;-77
2022/07/04 02:19:11;;;;;;;20.08;13.30;;;;;;;;;;5009838;28;20103;-76
2022/07/04 02:21:36;;;;;;;16.63;13.80;;;;;;;;;;5039769;28;20076;-77
2022/07/04 02:24:02;;;;;;;23.55;15.23;;;;;;;;;;5025651;28;20574;-77
2022/07/04 02:26:28;;;;;;;21.30;15.07;;;;;;;;;;5025210;28;20033;-76
2022/07/04 02:28:54;;;;;;;24.38;15.40;;;;;;;;;;5008214;28;20029;-78
2022/07/04 02:31:19;;;;;;;20.85;16.50;;;;;;;;;;5042435;28;20104;-77
2022/07/04 02:33:45;;;;;;;20.33;16.02;;;;;;;;;;5035105;28;20068;-77
2022/07/04 02:36:10;;;;;;;22.38;16.27;;;;;;;;;;5021093;28;20079;-76
2022/07/04 02:38:35;;;;;;;23.77;15.40;;;;;;;;;;5041478;28;20448;-77
2022/07/04 02:41:01;;;;;;;22.08;14.40;;;;;;;;;;5014020;28;20064;-77
2022/07/04 02:43:26;;;;;;;22.75;16.52;;;;;;;;;;5020251;28;20083;-78
2022/07/04 02:45:51;;;;;;;24.90;17.80;;;;;;;;;;5023741;28;20469;-77
2022/07/04 02:48:17;;;;;;;22.95;17.58;;;;;;;;;;5020529;28;20044;-77
2022/07/04 02:50:42;;;;;;;24.58;16.92;;;;;;;;;;5041134;28;20025;-77
2022/07/04 02:53:07;;;;;;;26.75;15.50;;;;;;;;;;5011654;28;20072;-77
2022/07/04 02:55:33;;;;;;;28.35;17.73;;;;;;;;;;5041545;28;20060;-77
2022/07/04 02:57:58;;;;;;;24.63;17.08;;;;;;;;;;5016986;28;20087;-78
2022/07/04 03:00:24;;;;;;;26.33;18.17;;;;;;;;;;5023806;28;20051;-77
2022/07/04 03:02:49;;;;;;;23.55;18.77;;;;;;;;;;5023919;28;20039;-78
2022/07/04 03:05:14;;;;;;;26.48;18.85;;;;;;;;;;5012983;28;20128;-77
2022/07/04 03:07:40;;;;;;;23.27;18.52;;;;;;;;;;5004294;28;20030;-77
2022/07/04 03:10:05;;;;;;;31.77;20.60;;;;;;;;;;5040001;28;20112;-78
2022/07/04 03:12:31;;;;;;;32.58;21.15;;;;;;;;;;5021828;28;20074;-77
2022/07/04 03:14:58;;;;;;;29.98;20.15;;;;;;;;;;5002288;28;20478;-76
2022/07/04 03:17:24;;;;;;;27.15;18.80;;;;;;;;;;5008934;28;20458;-77
2022/07/04 03:19:50;;;;;;;38.38;23.15;;;;;;;;;;5007479;28;20121;-77
2022/07/04 03:22:15;;;;;;;33.90;22.40;;;;;;;;;;4991245;28;20068;-77
2022/07/04 03:24:40;;;;;;;33.72;21.00;;;;;;;;;;5013889;28;20648;-77
2022/07/04 03:27:06;;;;;;;34.08;22.65;;;;;;;;;;5008704;28;20056;-77
2022/07/04 03:29:31;;;;;;;27.90;20.38;;;;;;;;;;5029480;28;20153;-78
2022/07/04 03:31:57;;;;;;;31.83;22.00;;;;;;;;;;5029980;28;20500;-76
2022/07/04 03:34:22;;;;;;;34.83;23.08;;;;;;;;;;5002773;28;20076;-77
2022/07/04 03:36:47;;;;;;;30.70;22.45;;;;;;;;;;4992700;28;20047;-78
2022/07/04 03:39:13;;;;;;;29.85;20.50;;;;;;;;;;5041160;28;20127;-78
2022/07/04 03:41:38;;;;;;;35.28;21.95;;;;;;;;;;4996613;28;20109;-77
2022/07/04 03:44:04;;;;;;;36.47;23.83;;;;;;;;;;5039373;28;20163;-78
2022/07/04 03:46:29;;;;;;;38.72;26.20;;;;;;;;;;5039869;28;20039;-78
2022/07/04 03:48:55;;;;;;;36.78;26.55;;;;;;;;;;5006603;28;20029;-77
2022/07/04 03:51:22;;;;;;;36.28;24.08;;;;;;;;;;5021728;28;20040;-78
2022/07/04 03:53:48;;;;;;;40.38;26.08;;;;;;;;;;5006141;28;20084;-77
2022/07/04 03:56:13;;;;;;;33.53;22.40;;;;;;;;;;5023705;28;20025;-78
2022/07/04 03:58:38;;;;;;;39.92;25.65;;;;;;;;;;5020063;28;20572;-77
2022/07/04 04:01:04;;;;;;;39.70;26.17;;;;;;;;;;5027593;28;20565;-78
2022/07/04 04:06:14;;;;;;;38.53;22.92;;;;;;;;;;5039052;28;20048;-78
2022/07/04 04:08:40;;;;;;;38.53;25.95;;;;;;;;;;4995432;28;20040;-77
2022/07/04 04:11:05;;;;;;;39.60;25.02;;;;;;;;;;5015546;28;20040;-77
2022/07/04 04:13:30;;;;;;;36.20;24.20;;;;;;;;;;5015642;28;20047;-78
2022/07/04 04:15:56;;;;;;;42.05;26.30;;;;;;;;;;4989793;28;20053;-77
2022/07/04 04:18:21;;;;;;;37.50;25.10;;;;;;;;;;5035186;28;20105;-79
2022/07/04 04:20:47;;;;;;;41.40;24.98;;;;;;;;;;5041137;28;20082;-78
2022/07/04 04:23:12;;;;;;;37.72;25.75;;;;;;;;;;5005905;28;20117;-78
2022/07/04 04:25:37;;;;;;;38.55;25.13;;;;;;;;;;5025656;28;20118;-78
2022/07/04 04:28:06;;;;;;;39.95;26.58;;;;;;;;;;5002985;28;20028;-79
2022/07/04 04:30:31;;;;;;;41.15;24.50;;;;;;;;;;5024622;28;20116;-78
2022/07/04 04:32:56;;;;;;;42.00;24.35;;;;;;;;;;5022630;28;20053;-77
2022/07/04 04:35:22;;;;;;;33.47;23.45;;;;;;;;;;5005794;28;20030;-79
2022/07/04 04:37:47;;;;;;;34.75;24.02;;;;;;;;;;5041668;28;20130;-78
2022/07/04 04:40:13;;;;;;;29.63;20.45;;;;;;;;;;5022260;28;20113;-78
2022/07/04 04:42:38;;;;;;;37.08;21.15;;;;;;;;;;5036746;28;20032;-78
2022/07/04 04:45:04;;;;;;;26.88;20.23;;;;;;;;;;5005768;28;20033;-78
2022/07/04 04:47:30;;;;;;;35.28;20.27;;;;;;;;;;4990999;28;20037;-78
2022/07/04 04:49:55;;;;;;;34.28;19.73;;;;;;;;;;5005372;28;20060;-78
2022/07/04 04:52:20;;;;;;;29.95;18.00;;;;;;;;;;5006645;28;20048;-77
2022/07/04 04:54:46;;;;;;;25.08;17.85;;;;;;;;;;5020588;28;20418;-77
2022/07/04 04:57:11;;;;;;;29.90;18.02;;;;;;;;;;5022288;28;20112;-78
2022/07/04 04:59:36;;;;;;;23.48;18.17;;;;;;;;;;5029249;28;20113;-78
2022/07/04 05:02:03;;;;;;;30.77;17.20;;;;;;;;;;5022575;28;20148;-78
2022/07/04 05:04:29;;;;;;;23.75;16.80;;;;;;;;;;5008714;28;20036;-78
2022/07/04 05:06:55;;;;;;;23.15;15.52;;;;;;;;;;5027380;28;20037;-78
2022/07/04 05:09:21;;;;;;;21.33;15.90;;;;;;;;;;5027466;28;20029;-76
2022/07/04 05:11:46;;;;;;;21.00;14.23;;;;;;;;;;5028883;28;20116;-77
2022/07/04 05:14:12;;;;;;;22.13;14.55;;;;;;;;;;5005489;28;20032;-73
2022/07/04 05:16:38;;;;;;;17.08;12.73;;;;;;;;;;5051109;28;20033;-77
2022/07/04 05:19:03;;;;;;;23.77;13.43;;;;;;;;;;5003240;28;20505;-74
2022/07/04 05:21:29;;;;;;;16.17;11.43;;;;;;;;;;5012827;28;20029;-75
2022/07/04 05:23:55;;;;;;;14.07;11.00;;;;;;;;;;5034947;28;20114;-76
2022/07/04 05:26:21;;;;;;;14.93;10.95;;;;;;;;;;5019275;28;20029;-76
2022/07/04 05:28:46;;;;;;;16.33;11.20;;;;;;;;;;5036925;28;20044;-75
2022/07/04 05:31:11;;;;;;;17.40;10.13;;;;;;;;;;5020416;28;20449;-75
2022/07/04 05:33:37;;;;;;;13.23;9.55;;;;;;;;;;5017067;28;20038;-76
2022/07/04 05:36:02;;;;;;;19.83;10.00;;;;;;;;;;5005918;28;20030;-74
2022/07/04 05:38:28;;;;;;;12.43;8.80;;;;;;;;;;5003172;28;20079;-75
2022/07/04 05:40:55;;;;;;;17.95;10.00;;;;;;;;;;5020322;28;20520;-76
2022/07/04 05:43:21;;;;;;;15.25;10.05;;;;;;;;;;4996182;28;20036;-75
2022/07/04 05:45:48;;;;;;;23.73;10.52;;;;;;;;;;5023595;28;20033;-75
2022/07/04 05:48:13;;;;;;;12.57;9.13;;;;;;;;;;5022574;28;20081;-75
2022/07/04 05:50:39;;;;;;;12.23;8.90;;;;;;;;;;4999276;28;20018;-76
2022/07/04 05:53:04;;;;;;;18.15;9.25;;;;;;;;;;5034951;28;20553;-73
2022/07/04 05:55:30;;;;;;;13.85;9.07;;;;;;;;;;5028763;28;20488;-74
2022/07/04 05:57:55;;;;;;;12.25;8.75;;;;;;;;;;5027809;28;20044;-75
2022/07/04 06:00:20;;;;;;;17.63;8.93;;;;;;;;;;5013525;28;20468;-74
2022/07/04 06:02:46;;;;;;;22.00;9.48;;;;;;;;;;5023511;28;20095;-74
2022/07/04 06:05:11;;;;;;;16.45;8.95;;;;;;;;;;5026322;28;20029;-75
2022/07/04 06:07:37;;;;;;;15.48;7.95;;;;;;;;;;5020738;28;20064;-74
2022/07/04 06:10:03;;;;;;;13.77;8.07;;;;;;;;;;5031589;28;20497;-74
2022/07/04 06:12:29;;;;;;;13.40;7.57;;;;;;;;;;5041787;28;20029;-75
2022/07/04 06:14:54;;;;;;;15.45;9.05;;;;;;;;;;5014655;28;20031;-74
2022/07/04 06:17:19;;;;;;;13.73;7.05;;;;;;;;;;5047641;28;20143;-74
2022/07/04 06:19:45;;;;;;;12.40;7.55;;;;;;;;;;5011203;28;20116;-75
2022/07/04 06:22:10;;;;;;;13.95;7.03;;;;;;;;;;5037305;28;20442;-74
2022/07/04 06:24:35;;;;;;;17.13;7.95;;;;;;;;;;4995640;28;20044;-75
2022/07/04 06:27:03;;;;;;;17.65;7.10;;;;;;;;;;5005785;28;20468;-75
2022/07/04 06:29:28;;;;;;;15.43;6.35;;;;;;;;;;5004337;28;20080;-75
2022/07/04 06:31:53;;;;;;;11.88;7.03;;;;;;;;;;5011803;28;20656;-75
2022/07/04 06:37:03;;;;;;;12.93;6.38;;;;;;;;;;5029823;28;20119;-76
2022/07/04 06:39:29;;;;;;;11.95;6.13;;;;;;;;;;5033796;28;20069;-75
2022/07/04 06:41:54;;;;;;;12.68;6.60;;;;;;;;;;4998376;28;20025;-74
2022/07/04 06:44:20;;;;;;;16.25;6.68;;;;;;;;;;5043117;28;20049;-75
2022/07/04 06:46:45;;;;;;;11.50;5.72;;;;;;;;;;4995117;28;20068;-74
2022/07/04 06:49:11;;;;;;;13.98;5.75;;;;;;;;;;5000713;28;20025;-75
2022/07/04 06:51:37;;;;;;;14.18;5.68;;;;;;;;;;5030747;28;20021;-74
2022/07/04 06:54:08;;;;;;;9.38;4.63;;;;;;;;;;5025157;28;20036;-73
2022/07/04 06:56:33;;;;;;;10.82;5.18;;;;;;;;;;4987374;28;20093;-74
2022/07/04 06:58:59;;;;;;;11.50;4.45;;;;;;;;;;5021128;28;20142;-74
2022/07/04 07:01:24;;;;;;;12.05;4.55;;;;;;;;;;4998946;28;20041;-75
2022/07/04 07:03:50;;;;;;;14.60;4.57;;;;;;;;;;5037643;28;20043;-75
2022/07/04 07:06:16;;;;;;;16.55;6.40;;;;;;;;;;5011593;28;20114;-74
2022/07/04 07:08:41;;;;;;;11.35;4.53;;;;;;;;;;5037419;28;20040;-73
2022/07/04 07:11:12;;;;;;;9.50;4.78;;;;;;;;;;5001613;28;20056;-74
2022/07/04 07:13:48;;;;;;;15.95;5.10;;;;;;;;;;5031529;28;20033;-74
2022/07/04 07:16:13;;;;;;;13.57;4.40;;;;;;;;;;5023251;28;20160;-73
2022/07/04 07:18:38;;;;;;;12.55;5.22;;;;;;;;;;5007989;28;20136;-73
2022/07/04 07:21:04;;;;;;;22.98;6.55;;;;;;;;;;5029022;28;20045;-75
2022/07/04 07:23:29;;;;;;;12.00;5.03;;;;;;;;;;5034640;28;20064;-75
2022/07/04 07:25:55;;;;;;;13.98;5.18;;;;;;;;;;5005813;28;20037;-73
2022/07/04 07:28:20;;;;;;;14.52;5.28;;;;;;;;;;5047069;28;20064;-73
2022/07/04 07:30:46;;;;;;;10.77;4.60;;;;;;;;;;5005541;28;20037;-78
2022/07/04 07:33:11;;;;;;;13.18;4.95;;;;;;;;;;5012146;28;20532;-79
2022/07/04 07:35:37;;;;;;;14.63;4.75;;;;;;;;;;5013427;28;20029;-79
2022/07/04 07:38:02;;;;;;;11.38;4.72;;;;;;;;;;4999461;28;20041;-79
2022/07/04 07:40:28;;;;;;;17.95;4.95;;;;;;;;;;5004787;28;20402;-78
2022/07/04 07:42:54;;;;;;;13.68;4.03;;;;;;;;;;5044459;28;20029;-79
2022/07/04 07:45:20;;;;;;;14.65;4.50;;;;;;;;;;5027530;28;20047;-79
2022/07/04 07:47:45;;;;;;;9.63;3.92;;;;;;;;;;5046530;28;20542;-78
2022/07/04 07:50:11;;;;;;;11.55;5.25;;;;;;;;;;5063171;28;21437;-78
2022/07/04 07:52:36;;;;;;;18.17;4.85;;;;;;;;;;5012600;28;20033;-78
2022/07/04 07:55:04;;;;;;;13.25;4.38;;;;;;;;;;5015610;28;20053;-77
2022/07/04 07:57:29;;;;;;;13.73;5.00;;;;;;;;;;5023313;28;20130;-79
2022/07/04 07:59:54;;;;;;;9.40;3.75;;;;;;;;;;5025756;28;20520;-78
2022/07/04 08:04:33;;;;;;;14.38;3.88;;;;;;;;;;5017954;28;20129;-79
2022/07/04 08:05:07;;;;;;;9.98;3.72;;;;;;;;;;5028498;28;20036;-79
2022/07/04 08:07:32;;;;;;;14.10;3.80;;;;;;;;;;5029679;28;20033;-78
2022/07/04 08:09:58;;;;;;;13.73;3.67;;;;;;;;;;5027826;28;20040;-79
2022/07/04 08:12:23;;;;;;;10.68;3.05;;;;;;;;;;5046980;28;20048;-78
2022/07/04 08:14:49;;;;;;;13.52;3.78;;;;;;;;;;5045804;28;20075;-79
2022/07/04 08:17:14;;;;;;;10.23;3.00;;;;;;;;;;5006785;28;20410;-78
2022/07/04 08:19:39;;;;;;;10.13;3.05;;;;;;;;;;5010435;28;20557;-77
2022/07/04 08:22:05;;;;;;;14.70;4.22;;;;;;;;;;4996202;28;20107;-79
2022/07/04 08:24:30;;;;;;;11.15;3.42;;;;;;;;;;4998644;28;20056;-77
2022/07/04 08:26:55;;;;;;;12.02;3.20;;;;;;;;;;5028377;28;20084;-78
2022/07/04 08:29:21;;;;;;;9.45;3.08;;;;;;;;;;5027716;28;20030;-78
2022/07/04 08:31:46;;;;;;;15.00;3.83;;;;;;;;;;5027453;28;20054;-78
2022/07/04 08:34:12;;;;;;;15.48;3.80;;;;;;;;;;5011850;28;20029;-79
2022/07/04 08:36:37;;;;;;;9.20;2.58;;;;;;;;;;5016347;28;20038;-78
2022/07/04 08:39:03;;;;;;;7.78;2.55;;;;;;;;;;5042595;28;20060;-78
2022/07/04 08:41:29;;;;;;;8.82;2.80;;;;;;;;;;5027189;28;20037;-78
2022/07/04 08:43:54;;;;;;;11.85;3.08;;;;;;;;;;4988523;28;20416;-77
2022/07/04 08:46:19;;;;;;;12.77;3.40;;;;;;;;;;5027169;28;20572;-78
2022/07/04 08:48:50;;;;;;;8.90;2.47;;;;;;;;;;5024317;28;20035;-78
2022/07/04 08:51:16;;;;;;;9.63;2.30;;;;;;;;;;5027553;28;20026;-79
2022/07/04 08:53:50;;;;;;;14.23;2.70;;;;;;;;;;5028966;28;20053;-79
2022/07/04 08:58:59;;;;;;;10.73;3.35;;;;;;;;;;5045552;28;20040;-78
2022/07/04 09:01:25;;;;;;;11.35;2.40;;;;;;;;;;5024327;28;20054;-78
2022/07/04 09:03:50;;;;;;;16.27;3.70;;;;;;;;;;5007248;28;20133;-77
2022/07/04 09:06:15;;;;;;;12.73;2.78;;;;;;;;;;5023951;28;20564;-78
2022/07/04 09:08:41;;;;;;;11.38;2.88;;;;;;;;;;5043299;28;20148;-78
2022/07/04 09:11:06;;;;;;;8.55;2.58;;;;;;;;;;5044467;28;20072;-78
2022/07/04 09:13:31;;;;;;;12.65;2.97;;;;;;;;;;5028755;28;20615;-79
2022/07/04 09:15:57;;;;;;;12.60;2.55;;;;;;;;;;5011785;28;20029;-79
2022/07/04 09:18:33;;;;;;;11.30;2.35;;;;;;;;;;5031362;28;20562;-78
2022/07/04 09:21:06;;;;;;;8.95;2.33;;;;;;;;;;5031135;28;20079;-78
2022/07/04 09:23:33;;;;;;;8.98;2.10;;;;;;;;;;5010605;28;20029;-78
2022/07/04 09:26:15;;;;;;;5.47;1.60;;;;;;;;;;5028219;28;20116;-79
2022/07/04 09:28:42;;;;;;;5.22;1.52;;;;;;;;;;5044800;28;20033;-79
2022/07/04 09:31:21;;;;;;;6.32;1.60;;;;;;;;;;5027160;28;20121;-79
2022/07/04 09:33:53;;;;;;;7.90;1.83;;;;;;;;;;5024459;28;20037;-79
2022/07/04 09:36:25;;;;;;;7.18;1.60;;;;;;;;;;5043989;28;20076;-79
2022/07/04 09:39:14;;;;;;;6.18;1.58;;;;;;;;;;5010560;28;20065;-78
2022/07/04 09:41:51;;;;;;;5.47;1.65;;;;;;;;;;5042370;28;20025;-78
2022/07/04 09:44:17;;;;;;;4.40;1.50;;;;;;;;;;5032774;28;20493;-78
2022/07/04 09:46:42;;;;;;;6.93;1.95;;;;;;;;;;5031584;28;20027;-78
2022/07/04 09:49:08;;;;;;;4.93;1.30;;;;;;;;;;5029914;28;20061;-78
2022/07/04 09:51:40;;;;;;;10.35;2.03;;;;;;;;;;5002313;28;20033;-78
2022/07/04 09:54:12;;;;;;;7.03;1.70;;;;;;;;;;5038736;28;20032;-79
2022/07/04 09:56:45;;;;;;;4.57;1.40;;;;;;;;;;5030040;28;20039;-79
2022/07/04 09:59:10;;;;;;;;;;;;;;;;;;5015558;28;20037;-79
2022/07/04 10:01:36;;;;;;;6.85;1.48;;;;;;;;;;5019751;28;19918;-79
2022/07/04 10:04:03;;;;;;;6.45;1.63;;;;;;;;;;5031860;28;20476;-79
2022/07/04 10:06:32;;;;;;;7.97;1.63;;;;;;;;;;5031253;28;20063;-78
2022/07/04 10:09:09;;;;;;;6.32;1.30;;;;;;;;;;5027868;28;20012;-79
2022/07/04 10:11:35;;;;;;;10.75;1.50;;;;;;;;;;5029195;28;20021;-74
2022/07/04 10:14:00;;;;;;;7.35;1.58;;;;;;;;;;5044878;28;20036;-76
2022/07/04 10:16:26;;;;;;;4.68;1.38;;;;;;;;;;5041343;28;20079;-75
2022/07/04 10:18:51;;;;;;;8.15;2.08;;;;;;;;;;5043351;28;21570;-74
2022/07/04 10:21:17;;;;;;;5.72;1.95;;;;;;;;;;4998986;28;20509;-75
2022/07/04 10:23:42;;;;;;;6.38;1.92;;;;;;;;;;5040044;28;20060;-75
2022/07/04 10:26:07;;;;;;;8.80;1.77;;;;;;;;;;5022286;28;20112;-73
2022/07/04 10:28:33;;;;;;;8.60;1.77;;;;;;;;;;5029853;28;20638;-73
2022/07/04 10:30:58;;;;;;;6.40;1.83;;;;;;;;;;5008980;28;20044;-74
2022/07/04 10:33:25;;;;;;;7.03;1.63;;;;;;;;;;5043008;28;20064;-74
2022/07/04 10:35:54;;;;;;;5.72;1.45;;;;;;;;;;5008261;28;20085;-74
2022/07/04 10:38:26;;;;;;;7.13;1.50;;;;;;;;;;5028564;28;20164;-74
2022/07/04 10:40:53;;;;;;;4.88;1.60;;;;;;;;;;4998140;28;20045;-75
2022/07/04 10:43:31;;;;;;;11.95;1.95;;;;;;;;;;5039542;28;20388;-74
2022/07/04 10:46:12;;;;;;;4.45;1.27;;;;;;;;;;5047701;28;20029;-74
2022/07/04 10:48:51;;;;;;;7.00;1.73;;;;;;;;;;5045838;28;20102;-74
2022/07/04 10:51:35;;;;;;;6.78;1.60;;;;;;;;;;5033889;28;20063;-74
2022/07/04 10:54:02;;;;;;;6.15;1.70;;;;;;;;;;5019472;28;20029;-75
2022/07/04 10:56:27;;;;;;;6.95;1.73;;;;;;;;;;5037093;28;20037;-74
2022/07/04 10:58:53;;;;;;;5.00;1.80;;;;;;;;;;5046811;28;20043;-74
2022/07/04 11:01:21;;;;;;;6.70;1.63;;;;;;;;;;5042773;28;20041;-74
2022/07/04 11:03:50;;;;;;;4.47;1.77;;;;;;;;;;5060215;28;20029;-75
2022/07/04 11:06:42;;;;;;;7.50;2.13;;;;;;;;;;5028984;28;20052;-74
2022/07/04 11:09:24;;;;;;;3.50;1.75;;;;;;;;;;5044908;28;20124;-75
2022/07/04 11:12:04;;;;;;;4.60;2.28;;;;;;;;;;5040652;28;20036;-75
2022/07/04 11:14:29;;;;;;;3.80;1.90;;;;;;;;;;5045176;28;20055;-75
2022/07/04 11:16:55;;;;;;;8.55;2.92;;;;;;;;;;5046367;28;25298;-75
2022/07/04 11:19:20;;;;;;;6.45;2.78;;;;;;;;;;5050840;28;20080;-74
2022/07/04 11:21:45;;;;;;;9.15;2.40;;;;;;;;;;5040295;28;20234;-74
2022/07/04 11:24:11;;;;;;;5.22;1.67;;;;;;;;;;5011763;28;20075;-74
2022/07/04 11:26:36;;;;;;;5.10;1.70;;;;;;;;;;5021912;28;20056;-74
2022/07/04 11:29:01;;;;;;;4.53;1.20;;;;;;;;;;5020753;28;20087;-74
2022/07/04 11:31:56;;;;;;;4.32;1.27;;;;;;;;;;5012605;28;20166;-74
2022/07/04 11:34:22;;;;;;;3.38;1.25;;;;;;;;;;5036550;28;20033;-74
2022/07/04 11:36:48;;;;;;;5.57;1.55;;;;;;;;;;5007170;28;20087;-74
2022/07/04 11:39:20;;;;;;;8.40;1.58;;;;;;;;;;5040187;28;20044;-74
2022/07/04 11:47:25;;;;;;;5.38;1.20;;;;;;;;;;5038551;28;20497;-73
2022/07/04 11:49:54;;;;;;;4.85;1.42;;;;;;;;;;5040213;28;20055;-74
2022/07/04 11:52:22;;;;;;;4.80;1.52;;;;;;;;;;5041415;28;20029;-73
2022/07/04 11:54:48;;;;;;;4.32;1.20;;;;;;;;;;5044102;28;20049;-73
2022/07/04 11:57:18;;;;;;;3.10;0.93;;;;;;;;;;5026542;28;20036;-73
2022/07/04 12:00:00;;;;;;;2.42;0.98;;;;;;;;;;5046197;28;20045;-73
2022/07/04 12:02:26;;;;;;;2.55;1.02;;;;;;;;;;5040100;28;20090;-73
2022/07/04 12:04:52;;;;;;;4.05;1.40;;;;;;;;;;5038431;28;20032;-73
2022/07/04 12:07:19;;;;;;;3.45;1.13;;;;;;;;;;5039293;28;20485;-73
2022/07/04 12:09:45;;;;;;;2.95;0.98;;;;;;;;;;5040893;28;20032;-73
2022/07/04 12:12:11;;;;;;;3.90;1.00;;;;;;;;;;5010126;28;20481;-73
2022/07/04 12:14:36;;;;;;;4.50;1.13;;;;;;;;;;5026942;28;20060;-74
2022/07/04 12:17:12;;;;;;;3.35;1.20;;;;;;;;;;5040271;28;20037;-74
2022/07/04 12:19:38;;;;;;;3.45;1.10;;;;;;;;;;5038289;28;20167;-74
2022/07/04 12:22:03;;;;;;;2.95;1.02;;;;;;;;;;5007190;28;20089;-74
2022/07/04 12:24:43;;;;;;;5.35;1.00;;;;;;;;;;4992105;28;20551;-72
2022/07/04 12:27:17;;;;;;;3.53;0.90;;;;;;;;;;5022857;28;20625;-73
2022/07/04 12:29:49;;;;;;;3.92;1.50;;;;;;;;;;5039670;28;20241;-72
2022/07/04 12:32:14;;;;;;;2.87;0.90;;;;;;;;;;5022635;28;20488;-72
2022/07/04 12:34:39;;;;;;;5.15;1.02;;;;;;;;;;5057666;28;21927;-73
2022/07/04 12:37:07;;;;;;;3.45;1.13;;;;;;;;;;5036990;28;20124;-73
2022/07/04 12:39:34;;;;;;;6.68;1.10;;;;;;;;;;5037910;28;20408;-73
2022/07/04 12:42:10;;;;;;;6.32;1.40;;;;;;;;;;5018417;28;20033;-73
2022/07/04 12:44:39;;;;;;;3.85;1.00;;;;;;;;;;5029689;28;20094;-72
2022/07/04 12:47:05;;;;;;;2.17;0.90;;;;;;;;;;5039465;28;20459;-74
2022/07/04 12:49:31;;;;;;;4.15;1.42;;;;;;;;;;5036454;28;20029;-73
2022/07/04 12:52:05;;;;;;;2.75;0.88;;;;;;;;;;5038171;28;20044;-73
2022/07/04 12:54:31;;;;;;;5.97;1.20;;;;;;;;;;5009098;28;20134;-73
2022/07/04 12:57:10;;;;;;;4.38;1.15;;;;;;;;;;5040790;28;21659;-73
2022/07/04 12:59:35;;;;;;;6.72;0.98;;;;;;;;;;5022205;28;20037;-73
2022/07/04 13:02:01;;;;;;;5.53;0.90;;;;;;;;;;5021251;28;20088;-73
2022/07/04 13:04:26;;;;;;;3.95;1.20;;;;;;;;;;5022054;28;20025;-73
2022/07/04 13:06:52;;;;;;;4.57;1.40;;;;;;;;;;5041344;28;20030;-73
2022/07/04 13:09:17;;;;;;;4.38;1.33;;;;;;;;;;5044624;28;20094;-72
2022/07/04 13:14:26;;;;;;;7.75;1.40;;;;;;;;;;5042350;28;20535;-73
2022/07/04 13:16:52;;;;;;;8.18;1.48;;;;;;;;;;5041615;28;20064;-73
2022/07/04 13:19:17;;;;;;;2.63;1.00;;;;;;;;;;5035820;28;20486;-73
2022/07/04 13:21:43;;;;;;;3.63;1.23;;;;;;;;;;5038212;28;20029;-74
2022/07/04 13:24:08;;;;;;;2.58;1.10;;;;;;;;;;5038071;28;20021;-74
2022/07/04 13:26:34;;;;;;;4.07;1.30;;;;;;;;;;5037978;28;20103;-73
2022/07/04 13:29:00;;;;;;;4.82;1.15;;;;;;;;;;5012732;28;20544;-73
2022/07/04 13:31:27;;;;;;;6.10;1.02;;;;;;;;;;5008615;28;20022;-73
2022/07/04 13:33:55;;;;;;;3.78;1.08;;;;;;;;;;5024410;28;20056;-73
2022/07/04 13:36:21;;;;;;;5.10;0.90;;;;;;;;;;5006776;28;20717;-72
2022/07/04 13:38:46;;;;;;;4.15;1.10;;;;;;;;;;5042791;28;20045;-72
2022/07/04 13:41:11;;;;;;;4.70;1.35;;;;;;;;;;5034173;28;20052;-74
2022/07/04 13:43:37;;;;;;;1.05;0.60;;;;;;;;;;5041926;28;20547;-73
2022/07/04 13:46:03;;;;;;;4.60;0.98;;;;;;;;;;5040666;28;20065;-74
2022/07/04 13:48:28;;;;;;;2.33;0.82;;;;;;;;;;5005921;28;20116;-75
2022/07/04 13:50:55;;;;;;;1.90;0.80;;;;;;;;;;5039263;28;20166;-76
2022/07/04 13:53:20;;;;;;;1.85;0.82;;;;;;;;;;5026414;28;20029;-75
2022/07/04 13:55:45;;;;;;;4.05;1.10;;;;;;;;;;5011204;28;20460;-75
2022/07/04 13:58:11;;;;;;;5.63;1.02;;;;;;;;;;5029487;28;20485;-75
2022/07/04 14:00:37;;;;;;;5.45;1.30;;;;;;;;;;5011830;28;20861;-74
2022/07/04 14:03:03;;;;;;;3.58;0.93;;;;;;;;;;5046318;28;20033;-74
2022/07/04 14:05:29;;;;;;;3.95;1.20;;;;;;;;;;5030048;28;20108;-74
2022/07/04 14:07:54;;;;;;;3.50;1.02;;;;;;;;;;5013841;28;20471;-74
2022/07/04 14:10:20;;;;;;;4.97;0.98;;;;;;;;;;5029214;28;20033;-75
2022/07/04 14:12:45;;;;;;;7.00;1.10;;;;;;;;;;5026331;28;20088;-74
2022/07/04 14:15:11;;;;;;;5.05;1.10;;;;;;;;;;5042891;28;20117;-73
2022/07/04 14:17:37;;;;;;;4.85;0.85;;;;;;;;;;5024660;28;20025;-74
2022/07/04 14:20:04;;;;;;;5.45;0.80;;;;;;;;;;5062717;28;20390;-74
2022/07/04 14:22:30;;;;;;;5.22;1.00;;;;;;;;;;5027276;28;20098;-75
2022/07/04 14:24:55;;;;;;;3.58;1.10;;;;;;;;;;5045433;28;20108;-75
2022/07/04 14:27:20;;;;;;;4.00;1.00;;;;;;;;;;5045733;28;20094;-74
2022/07/04 14:29:46;;;;;;;4.60;1.08;;;;;;;;;;5044145;28;20466;-75
2022/07/04 14:32:12;;;;;;;3.78;1.05;;;;;;;;;;5001979;28;20538;-75
2022/07/04 14:34:37;;;;;;;3.05;1.00;;;;;;;;;;5037194;28;20052;-75
2022/07/04 14:37:03;;;;;;;3.53;1.00;;;;;;;;;;5018261;28;20053;-74
2022/07/04 14:39:28;;;;;;;5.32;0.90;;;;;;;;;;5011739;28;20052;-75
2022/07/04 14:41:54;;;;;;;4.00;0.63;;;;;;;;;;5041137;28;20521;-73
2022/07/04 14:44:19;;;;;;;2.70;0.80;;;;;;;;;;5048578;28;20029;-77
2022/07/04 14:46:44;;;;;;;3.42;1.00;;;;;;;;;;5036159;28;20055;-76
2022/07/04 14:49:10;;;;;;;5.50;1.05;;;;;;;;;;5027248;28;20032;-76
2022/07/04 14:51:38;;;;;;;4.47;0.70;;;;;;;;;;5038569;28;20068;-75